Time;durP1;ratioP1;P1;durP2;ratioP2;P2;SDS_P1;SDS_P2;PMS_P1;PMS_P2;Temp;Humidity;BMP_temperature;BMP_pressure;BME280_temperature;BME280_humidity;BME280_pressure;Samples;Min_cycle;Max_cycle;Signal;HPM_P1;HPM_P2
2022/08/08 00:01:07;;;;;;;3.92;2.42;;;24.20;99.90;;;;;;5207298;28;20017;-72
2022/08/08 00:04:01;;;;;;;4.90;2.75;;;24.20;99.90;;;;;;5207173;28;20030;-73
2022/08/08 00:06:45;;;;;;;6.00;2.97;;;24.20;99.90;;;;;;5206702;28;20045;-73
2022/08/08 00:09:15;;;;;;;5.30;2.65;;;24.20;99.90;;;;;;5207018;28;20056;-73
2022/08/08 00:12:01;;;;;;;3.33;2.70;;;24.20;99.90;;;;;;5206851;28;20068;-72
2022/08/08 00:14:49;;;;;;;6.07;2.30;;;24.20;99.90;;;;;;5206747;28;20029;-74
2022/08/08 00:17:29;;;;;;;6.50;2.70;;;24.20;99.90;;;;;;5206945;28;20036;-72
2022/08/08 00:20:06;;;;;;;2.50;1.88;;;24.20;99.90;;;;;;5206778;28;20057;-73
2022/08/08 00:22:47;;;;;;;6.75;2.40;;;24.10;99.90;;;;;;5206364;28;20091;-72
2022/08/08 00:25:40;;;;;;;3.20;2.08;;;24.10;99.90;;;;;;5206601;28;20436;-73
2022/08/08 00:28:15;;;;;;;3.10;1.92;;;24.10;99.90;;;;;;5206666;28;20095;-73
2022/08/08 00:30:50;;;;;;;3.38;2.03;;;24.20;99.90;;;;;;5206746;28;20437;-74
2022/08/08 00:33:27;;;;;;;4.43;2.25;;;24.10;99.90;;;;;;5206636;28;20116;-73
2022/08/08 00:36:22;;;;;;;4.50;2.00;;;24.10;99.90;;;;;;5206208;28;20045;-74
2022/08/08 00:39:09;;;;;;;3.70;2.25;;;24.10;99.90;;;;;;5206446;28;20018;-72
2022/08/08 00:42:04;;;;;;;4.60;1.95;;;24.20;99.90;;;;;;5188744;28;20025;-74
2022/08/08 00:44:57;;;;;;;3.95;2.30;;;24.10;99.90;;;;;;5206362;28;20021;-73
2022/08/08 00:47:53;;;;;;;3.20;2.65;;;24.10;99.90;;;;;;5206436;28;20448;-73
2022/08/08 00:50:42;;;;;;;3.00;1.67;;;24.10;99.90;;;;;;5205248;28;20025;-74
2022/08/08 00:54:01;;;;;;;5.40;2.13;;;24.10;99.90;;;;;;5206262;28;20037;-75
2022/08/08 00:56:50;;;;;;;3.47;1.85;;;24.10;99.90;;;;;;5103501;29;20041;-74
2022/08/08 00:59:45;;;;;;;5.30;2.42;;;24.20;99.90;;;;;;5103609;29;20031;-72
2022/08/08 01:02:46;;;;;;;7.53;1.92;;;24.10;99.90;;;;;;5103496;29;20064;-75
2022/08/08 01:05:47;;;;;;;5.65;1.98;;;24.10;99.90;;;;;;5103022;29;20059;-73
2022/08/08 01:08:26;;;;;;;5.32;2.17;;;24.10;99.90;;;;;;5103264;29;20071;-74
2022/08/08 01:11:18;;;;;;;3.42;2.05;;;24.10;99.90;;;;;;5103230;29;20078;-73
2022/08/08 01:13:54;;;;;;;4.38;2.25;;;24.10;99.90;;;;;;5103178;29;20079;-75
2022/08/08 01:17:02;;;;;;;6.95;2.33;;;24.10;99.90;;;;;;5103275;29;20028;-73
2022/08/08 01:20:03;;;;;;;3.55;2.42;;;24.20;99.90;;;;;;5103089;29;20052;-73
2022/08/08 01:22:47;;;;;;;5.53;2.00;;;24.10;99.90;;;;;;5103277;29;20066;-73
2022/08/08 01:25:45;;;;;;;4.50;2.17;;;24.10;99.90;;;;;;5103122;29;20048;-74
2022/08/08 01:28:31;;;;;;;3.35;2.00;;;24.20;99.90;;;;;;5201967;28;20030;-74
2022/08/08 01:31:29;;;;;;;3.85;1.63;;;24.20;99.90;;;;;;5205822;28;20075;-73
2022/08/08 01:34:28;;;;;;;3.50;1.77;;;24.20;99.90;;;;;;5205888;28;20487;-75
2022/08/08 01:37:29;;;;;;;4.05;2.10;;;24.20;99.90;;;;;;5210042;28;20389;-75
2022/08/08 01:40:29;;;;;;;3.55;1.88;;;24.30;99.90;;;;;;5192298;28;20040;-74
2022/08/08 01:43:37;;;;;;;3.20;1.85;;;24.30;99.90;;;;;;5208847;28;20040;-73
2022/08/08 01:46:14;;;;;;;6.13;2.05;;;24.20;99.90;;;;;;5209917;28;20029;-73
2022/08/08 01:49:07;;;;;;;5.35;2.20;;;24.30;99.90;;;;;;5210239;28;20036;-73
2022/08/08 01:51:59;;;;;;;2.80;1.58;;;24.30;99.90;;;;;;5209856;28;20108;-71
2022/08/08 01:54:53;;;;;;;3.28;1.83;;;24.30;99.90;;;;;;5191943;28;20075;-72
2022/08/08 01:57:30;;;;;;;4.05;2.00;;;24.30;99.90;;;;;;5209651;28;20033;-73
2022/08/08 02:00:09;;;;;;;3.28;2.10;;;24.30;99.90;;;;;;5209628;28;20553;-72
2022/08/08 02:02:49;;;;;;;3.27;1.70;;;24.30;99.90;;;;;;5209645;28;20075;-74
2022/08/08 02:05:38;;;;;;;6.20;2.15;;;24.30;99.90;;;;;;5209061;28;20395;-74
2022/08/08 02:08:26;;;;;;;3.93;1.80;;;24.30;99.90;;;;;;5209453;28;20037;-74
2022/08/08 02:11:22;;;;;;;3.10;1.92;;;24.30;99.90;;;;;;5209446;28;20013;-73
2022/08/08 02:14:04;;;;;;;4.50;1.80;;;24.30;99.90;;;;;;5209111;28;20038;-72
2022/08/08 02:16:42;;;;;;;4.57;2.05;;;24.30;99.90;;;;;;5209116;28;20369;-73
2022/08/08 02:19:34;;;;;;;5.65;1.95;;;24.40;99.90;;;;;;5209203;28;20029;-74
2022/08/08 02:22:52;;;;;;;4.47;2.10;;;24.30;99.90;;;;;;5209141;28;20029;-73
2022/08/08 02:25:35;;;;;;;3.28;1.67;;;24.40;99.90;;;;;;5209074;28;20034;-75
2022/08/08 02:28:35;;;;;;;6.18;1.98;;;24.40;99.90;;;;;;5191961;28;20432;-75
2022/08/08 02:31:28;;;;;;;4.07;2.00;;;24.40;99.90;;;;;;5209782;28;20076;-75
2022/08/08 02:34:38;;;;;;;4.82;1.73;;;24.50;99.90;;;;;;5209437;28;20060;-75
2022/08/08 02:37:21;;;;;;;;;;;24.50;99.90;;;;;;5210087;28;20034;-75
2022/08/08 02:40:13;;;;;;;3.70;2.10;;;24.50;99.90;;;;;;5208796;28;19952;-73
2022/08/08 02:43:02;;;;;;;3.65;1.77;;;24.60;99.90;;;;;;5208938;28;20037;-73
2022/08/08 02:45:39;;;;;;;3.67;1.80;;;24.60;99.90;;;;;;5208086;28;20017;-72
2022/08/08 02:48:35;;;;;;;4.13;1.75;;;24.60;99.90;;;;;;5208530;28;20079;-73
2022/08/08 02:51:24;;;;;;;4.50;1.95;;;24.70;99.90;;;;;;5208617;28;20079;-74
2022/08/08 02:54:22;;;;;;;4.90;1.80;;;24.70;99.90;;;;;;5208429;28;20128;-73
2022/08/08 02:57:14;;;;;;;3.78;1.83;;;24.70;99.90;;;;;;5208584;28;20258;-73
2022/08/08 02:59:45;;;;;;;4.25;1.98;;;24.70;99.90;;;;;;5208312;28;20032;-74
2022/08/08 03:02:16;;;;;;;3.80;1.98;;;24.80;99.90;;;;;;5208282;28;20092;-72
2022/08/08 03:05:05;;;;;;;3.45;1.75;;;24.80;99.90;;;;;;5208160;28;20037;-73
2022/08/08 03:07:55;;;;;;;;;;;24.80;99.90;;;;;;5191074;28;20366;-75
2022/08/08 03:10:38;;;;;;;3.55;2.20;;;24.80;99.90;;;;;;5208442;28;19928;-71
2022/08/08 03:13:46;;;;;;;4.22;2.05;;;24.90;99.90;;;;;;5207965;28;20041;-73
2022/08/08 03:16:17;;;;;;;3.22;1.83;;;24.90;99.90;;;;;;5208166;28;20087;-73
2022/08/08 03:18:55;;;;;;;3.00;1.80;;;24.80;99.90;;;;;;5208193;28;20492;-74
2022/08/08 03:21:26;;;;;;;3.97;1.92;;;24.80;99.90;;;;;;5207819;28;20113;-73
2022/08/08 03:23:56;;;;;;;5.10;2.00;;;24.80;99.90;;;;;;5207742;28;20100;-72
2022/08/08 03:26:34;;;;;;;2.60;2.17;;;24.80;99.90;;;;;;5207897;28;20021;-72
2022/08/08 03:29:08;;;;;;;4.60;2.03;;;24.90;99.90;;;;;;5208109;28;20678;-72
2022/08/08 03:34:28;;;;;;;;;;;24.80;99.90;;;;;;5207977;28;20045;-72
2022/08/08 03:36:59;;;;;;;3.85;2.05;;;25.00;99.90;;;;;;5207693;28;20553;-72
2022/08/08 03:39:29;;;;;;;3.17;1.83;;;25.00;99.90;;;;;;5207632;28;20458;-73
2022/08/08 03:42:00;;;;;;;4.15;1.75;;;25.00;99.90;;;;;;5207517;28;20112;-74
2022/08/08 03:44:33;;;;;;;3.65;2.28;;;25.00;99.90;;;;;;5207459;28;20075;-73
2022/08/08 03:47:03;;;;;;;3.65;2.00;;;25.00;99.90;;;;;;5207451;28;20049;-73
2022/08/08 03:49:34;;;;;;;2.70;1.58;;;25.00;99.90;;;;;;5207465;28;20022;-73
2022/08/08 03:52:05;;;;;;;3.25;1.88;;;25.10;99.90;;;;;;5207607;28;20033;-74
2022/08/08 03:54:36;;;;;;;4.65;1.67;;;25.10;99.90;;;;;;5207473;28;20120;-73
2022/08/08 03:57:15;;;;;;;3.30;1.67;;;25.10;99.90;;;;;;5206807;28;20380;-72
2022/08/08 03:59:46;;;;;;;3.20;1.77;;;25.20;99.90;;;;;;5207361;28;20043;-74
2022/08/08 04:02:18;;;;;;;4.20;1.95;;;25.20;99.90;;;;;;5223589;28;20032;-72
2022/08/08 04:04:49;;;;;;;3.55;1.70;;;25.30;99.90;;;;;;5227545;28;20060;-74
2022/08/08 04:07:19;;;;;;;6.35;1.88;;;25.30;99.90;;;;;;5227632;28;20122;-75
2022/08/08 04:09:56;;;;;;;4.20;1.73;;;25.30;99.90;;;;;;5227799;28;20021;-74
2022/08/08 04:12:27;;;;;;;11.55;2.30;;;25.30;99.90;;;;;;5227682;28;20108;-73
2022/08/08 04:14:58;;;;;;;18.88;2.25;;;25.40;99.90;;;;;;5227463;28;20094;-72
2022/08/08 04:17:28;;;;;;;7.93;2.08;;;25.50;99.90;;;;;;5227645;28;20032;-73
2022/08/08 04:19:59;;;;;;;10.73;2.10;;;25.30;99.90;;;;;;5227587;28;20040;-72
2022/08/08 04:22:30;;;;;;;4.40;1.80;;;25.40;99.90;;;;;;5227428;28;20083;-73
2022/08/08 04:25:02;;;;;;;3.00;1.50;;;25.40;99.90;;;;;;5209397;28;20451;-73
2022/08/08 04:27:33;;;;;;;2.60;1.50;;;25.40;99.90;;;;;;5209473;28;20503;-72
2022/08/08 04:30:05;;;;;;;2.25;1.40;;;25.40;99.90;;;;;;5227202;28;20033;-72
2022/08/08 04:32:36;;;;;;;3.28;1.60;;;25.40;99.90;;;;;;5227059;28;20055;-72
2022/08/08 04:35:07;;;;;;;2.67;1.40;;;25.60;99.90;;;;;;5225625;28;20044;-72
2022/08/08 04:37:38;;;;;;;2.95;1.50;;;25.60;99.90;;;;;;5223907;28;20029;-72
2022/08/08 04:40:09;;;;;;;2.25;1.05;;;25.60;99.90;;;;;;5227835;28;20083;-73
2022/08/08 04:42:41;;;;;;;3.10;1.40;;;25.60;99.90;;;;;;5227716;28;20029;-73
2022/08/08 04:45:11;;;;;;;3.17;1.10;;;25.60;99.90;;;;;;5227097;28;20029;-74
2022/08/08 04:47:42;;;;;;;2.47;1.13;;;25.70;99.90;;;;;;5227196;28;20083;-73
2022/08/08 04:50:13;;;;;;;1.98;1.55;;;25.60;99.90;;;;;;5226974;28;20037;-72
2022/08/08 04:52:44;;;;;;;2.30;1.48;;;25.70;99.90;;;;;;5225327;28;20021;-72
2022/08/08 04:55:15;;;;;;;1.83;1.20;;;25.80;99.90;;;;;;5226702;28;20090;-74
2022/08/08 04:57:46;;;;;;;3.25;1.30;;;25.90;99.90;;;;;;5226681;28;20419;-72
2022/08/08 05:00:16;;;;;;;2.80;1.30;;;26.10;99.90;;;;;;5226633;28;20021;-72
2022/08/08 05:02:47;;;;;;;2.45;1.55;;;26.00;99.90;;;;;;5226480;28;20044;-73
2022/08/08 05:05:18;;;;;;;4.35;1.27;;;25.90;99.90;;;;;;5208235;28;20067;-74
2022/08/08 05:07:49;;;;;;;3.92;1.63;;;26.00;99.90;;;;;;5226579;28;20033;-74
2022/08/08 05:10:20;;;;;;;5.35;1.90;;;26.00;99.90;;;;;;5226246;28;20035;-74
2022/08/08 05:12:50;;;;;;;3.33;1.40;;;25.90;99.90;;;;;;5226365;28;20017;-74
2022/08/08 05:15:21;;;;;;;4.82;1.45;;;26.00;99.90;;;;;;5226160;28;20032;-75
2022/08/08 05:17:52;;;;;;;2.55;1.40;;;26.10;99.90;;;;;;5226374;28;20031;-75
2022/08/08 05:20:23;;;;;;;4.65;1.35;;;26.10;99.90;;;;;;5226259;28;20031;-74
2022/08/08 05:22:53;;;;;;;2.60;1.48;;;26.20;99.90;;;;;;5226308;28;20029;-74
2022/08/08 05:25:24;;;;;;;2.70;1.42;;;26.30;99.90;;;;;;5226400;28;20039;-70
2022/08/08 05:27:55;;;;;;;2.10;1.27;;;26.40;99.90;;;;;;5226542;28;20546;-71
2022/08/08 05:30:26;;;;;;;2.83;1.33;;;26.60;99.90;;;;;;5226407;28;20017;-72
2022/08/08 05:32:57;;;;;;;1.27;1.10;;;26.80;99.90;;;;;;5226464;28;20048;-70
2022/08/08 05:35:30;;;;;;;3.90;1.50;;;27.00;99.90;;;;;;5226070;28;20039;-69
2022/08/08 05:38:05;;;;;;;2.17;1.27;;;27.20;99.90;;;;;;5226417;28;20044;-70
2022/08/08 05:40:38;;;;;;;2.67;1.13;;;27.20;99.90;;;;;;5226315;28;20438;-68
2022/08/08 05:43:10;;;;;;;4.93;1.10;;;27.20;99.90;;;;;;5226157;28;20082;-69
2022/08/08 05:45:41;;;;;;;2.17;1.00;;;27.20;99.90;;;;;;5226390;28;20039;-70
2022/08/08 05:48:12;;;;;;;3.78;1.70;;;27.40;99.90;;;;;;5226535;28;20028;-70
2022/08/08 05:50:44;;;;;;;1.20;1.10;;;27.20;99.90;;;;;;5226347;28;20172;-68
2022/08/08 05:53:24;;;;;;;1.80;1.15;;;27.40;99.90;;;;;;5226073;28;20431;-69
2022/08/08 05:55:58;;;;;;;1.33;1.02;;;27.40;99.90;;;;;;5226359;28;20029;-69
2022/08/08 05:58:30;;;;;;;2.13;1.02;;;27.40;99.90;;;;;;5226204;28;20599;-70
2022/08/08 06:01:02;;;;;;;1.35;0.80;;;27.30;99.90;;;;;;5226105;28;20025;-69
2022/08/08 06:03:34;;;;;;;4.13;1.60;;;27.60;99.90;;;;;;5226232;28;20017;-71
2022/08/08 06:06:05;;;;;;;4.07;1.48;;;27.90;99.90;;;;;;5225858;28;20049;-69
2022/08/08 06:08:48;;;;;;;5.05;1.65;;;27.90;99.90;;;;;;5207639;28;20171;-70
2022/08/08 06:11:19;;;;;;;2.83;1.30;;;27.70;99.90;;;;;;5205113;28;20116;-71
2022/08/08 06:13:50;;;;;;;3.22;1.20;;;27.80;99.90;;;;;;5205221;28;20405;-73
2022/08/08 06:16:21;;;;;;;2.00;1.02;;;27.80;99.90;;;;;;5187578;28;20048;-69
2022/08/08 06:18:54;;;;;;;2.47;1.33;;;27.80;99.90;;;;;;5205256;28;20026;-69
2022/08/08 06:21:26;;;;;;;3.70;1.50;;;28.00;99.90;;;;;;5207185;28;20132;-69
2022/08/08 06:23:56;;;;;;;2.50;1.40;;;27.60;99.90;;;;;;5208704;28;20013;-69
2022/08/08 06:26:32;;;;;;;2.35;1.30;;;27.40;99.90;;;;;;5208699;28;20099;-72
2022/08/08 06:29:08;;;;;;;3.72;1.50;;;27.30;99.90;;;;;;5209028;28;20025;-73
2022/08/08 06:31:40;;;;;;;1.67;1.08;;;27.40;99.90;;;;;;5208944;28;20033;-70
2022/08/08 06:34:19;;;;;;;3.58;1.58;;;27.20;99.90;;;;;;5208654;28;20171;-69
2022/08/08 06:36:51;;;;;;;3.38;1.33;;;27.20;99.90;;;;;;5208998;28;20033;-69
2022/08/08 06:39:25;;;;;;;4.07;1.50;;;27.20;99.90;;;;;;5208721;28;20499;-69
2022/08/08 06:41:58;;;;;;;3.22;1.70;;;27.20;99.90;;;;;;5208733;28;20021;-70
2022/08/08 06:44:29;;;;;;;3.03;1.40;;;27.20;99.90;;;;;;5208514;28;20076;-69
2022/08/08 06:47:00;;;;;;;2.63;1.27;;;27.30;99.90;;;;;;5208637;28;20756;-70
2022/08/08 06:49:31;;;;;;;3.00;1.40;;;27.30;99.90;;;;;;5208538;28;20028;-70
2022/08/08 06:52:03;;;;;;;3.03;1.30;;;27.30;99.90;;;;;;5208572;28;20409;-69
2022/08/08 06:54:35;;;;;;;2.63;1.13;;;27.30;99.90;;;;;;5190632;28;20123;-71
2022/08/08 06:57:07;;;;;;;2.20;1.52;;;27.40;99.90;;;;;;5208510;28;20044;-69
2022/08/08 06:59:37;;;;;;;4.78;1.70;;;27.20;99.90;;;;;;5208378;28;20025;-69
2022/08/08 07:02:19;;;;;;;4.78;1.42;;;27.20;99.90;;;;;;5208294;28;20036;-68
2022/08/08 07:04:56;;;;;;;1.88;1.50;;;27.10;99.90;;;;;;5208028;28;20078;-70
2022/08/08 07:07:57;;;;;;;3.90;1.30;;;27.10;99.90;;;;;;5208366;28;20033;-70
2022/08/08 07:10:34;;;;;;;3.08;1.30;;;27.20;99.90;;;;;;5208219;28;20540;-69
2022/08/08 07:13:07;;;;;;;2.72;1.65;;;27.20;99.90;;;;;;5208072;28;20033;-70
2022/08/08 07:15:57;;;;;;;4.45;1.60;;;27.30;99.90;;;;;;5208097;28;20033;-69
2022/08/08 07:18:27;;;;;;;2.67;1.48;;;27.30;99.90;;;;;;5208184;28;20103;-69
2022/08/08 07:21:07;;;;;;;4.95;1.55;;;27.20;99.90;;;;;;5208049;28;20424;-69
2022/08/08 07:23:43;;;;;;;;;;;27.20;99.90;;;;;;5208348;28;20029;-69
2022/08/08 07:26:17;;;;;;;3.85;1.35;;;27.20;99.90;;;;;;5207913;28;19909;-69
2022/08/08 07:28:49;;;;;;;3.20;1.65;;;27.20;99.90;;;;;;5207897;28;20020;-69
2022/08/08 07:31:21;;;;;;;2.80;1.33;;;27.30;99.90;;;;;;5207813;28;20061;-69
2022/08/08 07:33:52;;;;;;;4.38;1.42;;;27.20;99.90;;;;;;5207568;28;20137;-69
2022/08/08 07:36:24;;;;;;;2.78;1.55;;;27.50;99.90;;;;;;5207570;28;20493;-69
2022/08/08 07:38:56;;;;;;;3.08;1.35;;;27.50;99.90;;;;;;5207652;28;20029;-70
2022/08/08 07:41:28;;;;;;;2.90;1.60;;;27.60;99.90;;;;;;5207624;28;20423;-69
2022/08/08 07:44:03;;;;;;;3.83;1.52;;;27.40;99.90;;;;;;5207534;28;20021;-69
2022/08/08 07:46:33;;;;;;;2.15;1.38;;;27.70;99.90;;;;;;5207354;28;20113;-70
2022/08/08 07:49:04;;;;;;;3.97;1.10;;;27.90;99.90;;;;;;5207491;28;20108;-71
2022/08/08 07:51:36;;;;;;;3.50;1.50;;;27.80;99.90;;;;;;5207400;28;20448;-69
2022/08/08 07:54:45;;;;;;;2.45;1.02;;;27.90;99.90;;;;;;5207221;28;20099;-71
2022/08/08 07:57:29;;;;;;;3.38;1.60;;;28.00;99.90;;;;;;5203451;28;20073;-70
2022/08/08 08:00:08;;;;;;;2.95;1.10;;;28.20;99.90;;;;;;5207326;28;20026;-71
2022/08/08 08:02:42;;;;;;;2.13;1.37;;;28.40;99.90;;;;;;5207144;28;20099;-69
2022/08/08 08:05:22;;;;;;;4.00;1.35;;;28.20;99.90;;;;;;5206731;28;20045;-70
2022/08/08 08:07:57;;;;;;;4.65;1.35;;;28.10;99.90;;;;;;5207154;28;20489;-70
2022/08/08 08:10:29;;;;;;;3.35;1.90;;;28.00;99.90;;;;;;5207149;28;20507;-69
2022/08/08 08:13:21;;;;;;;2.50;1.48;;;28.30;99.90;;;;;;5206857;28;20384;-71
2022/08/08 08:16:05;;;;;;;4.90;1.20;;;28.20;99.90;;;;;;5206913;28;20033;-69
2022/08/08 08:18:44;;;;;;;3.72;1.48;;;28.10;99.90;;;;;;5207081;28;20036;-70
2022/08/08 08:21:16;;;;;;;2.03;1.20;;;28.20;99.90;;;;;;5206988;28;20032;-69
2022/08/08 08:23:46;;;;;;;3.55;1.70;;;28.40;99.90;;;;;;5206935;28;20152;-72
2022/08/08 08:26:17;;;;;;;3.55;1.45;;;28.10;99.90;;;;;;5206784;28;20354;-70
2022/08/08 08:28:48;;;;;;;3.15;1.50;;;27.90;99.90;;;;;;5206813;28;20065;-70
2022/08/08 08:31:19;;;;;;;6.30;1.70;;;28.00;99.90;;;;;;5189201;28;20496;-70
2022/08/08 08:33:50;;;;;;;3.60;1.58;;;28.00;99.90;;;;;;5188851;28;20038;-69
2022/08/08 08:36:21;;;;;;;2.33;1.08;;;28.20;99.90;;;;;;5206440;28;20477;-69
2022/08/08 08:38:52;;;;;;;3.40;1.63;;;28.10;99.90;;;;;;5206554;28;20032;-70
2022/08/08 08:41:24;;;;;;;4.20;1.23;;;28.00;99.90;;;;;;5206547;28;20017;-70
2022/08/08 08:43:57;;;;;;;6.32;1.90;;;28.40;99.90;;;;;;5205987;28;20026;-70
2022/08/08 08:46:29;;;;;;;3.35;1.75;;;28.20;99.90;;;;;;5206473;28;20079;-68
2022/08/08 08:49:00;;;;;;;3.72;1.30;;;28.30;99.90;;;;;;5206245;28;20120;-70
2022/08/08 08:51:35;;;;;;;4.32;1.40;;;28.00;99.90;;;;;;5206265;28;20548;-69
2022/08/08 08:54:06;;;;;;;4.43;1.50;;;27.90;99.90;;;;;;5206222;28;20045;-70
2022/08/08 08:56:39;;;;;;;3.55;1.60;;;27.90;99.90;;;;;;5206290;28;20103;-72
2022/08/08 08:59:12;;;;;;;3.17;1.05;;;27.70;99.90;;;;;;5206308;28;20707;-70
2022/08/08 09:01:43;;;;;;;2.90;1.30;;;27.70;99.90;;;;;;5206201;28;20014;-70
2022/08/08 09:04:21;;;;;;;3.95;1.40;;;28.00;99.90;;;;;;5206188;28;20061;-69
2022/08/08 09:06:52;;;;;;;2.67;1.27;;;27.90;99.90;;;;;;5206057;28;20404;-70
2022/08/08 09:09:26;;;;;;;3.45;1.27;;;28.20;99.90;;;;;;5205914;28;20034;-69
2022/08/08 09:12:00;;;;;;;2.72;1.33;;;28.30;99.90;;;;;;5206209;28;20025;-69
2022/08/08 09:14:31;;;;;;;3.08;1.33;;;28.20;99.90;;;;;;5204888;28;20128;-70
2022/08/08 09:17:02;;;;;;;3.10;1.45;;;28.00;99.90;;;;;;5206196;28;20029;-70
2022/08/08 09:19:34;;;;;;;3.35;1.30;;;27.90;99.90;;;;;;5206072;28;20022;-69
2022/08/08 09:22:06;;;;;;;4.20;1.50;;;28.30;99.90;;;;;;5206121;28;20346;-69
2022/08/08 09:24:38;;;;;;;7.25;3.40;;;28.40;99.90;;;;;;5206123;28;20018;-69
2022/08/08 09:27:11;;;;;;;3.85;1.52;;;28.50;99.90;;;;;;5206063;28;20026;-69
2022/08/08 09:30:02;;;;;;;4.45;1.20;;;28.40;99.90;;;;;;5206245;28;20045;-70
2022/08/08 09:32:46;;;;;;;5.18;1.40;;;28.40;99.90;;;;;;5206189;28;20696;-71
2022/08/08 09:35:24;;;;;;;3.95;1.20;;;28.50;99.90;;;;;;5205988;28;20040;-70
2022/08/08 09:38:01;;;;;;;1.58;1.30;;;29.00;99.90;;;;;;5206101;28;20026;-70
2022/08/08 09:40:35;;;;;;;3.53;1.38;;;28.30;99.90;;;;;;5206085;28;20037;-69
2022/08/08 09:43:22;;;;;;;5.05;1.67;;;28.70;99.90;;;;;;5205650;28;20029;-69
2022/08/08 09:46:04;;;;;;;5.47;1.48;;;28.70;99.90;;;;;;5205822;28;20025;-72
2022/08/08 09:48:37;;;;;;;2.95;1.10;;;28.50;99.90;;;;;;5205863;28;20026;-70
2022/08/08 09:51:08;;;;;;;5.00;1.50;;;28.50;99.90;;;;;;5205983;28;20396;-72
2022/08/08 09:53:52;;;;;;;3.78;1.25;;;28.80;99.90;;;;;;5205731;28;20043;-70
2022/08/08 09:56:24;;;;;;;4.60;1.42;;;28.50;99.90;;;;;;5207477;28;20108;-69
2022/08/08 09:59:02;;;;;;;2.92;1.20;;;28.70;99.90;;;;;;5209599;28;20034;-69
2022/08/08 10:01:37;;;;;;;3.38;1.42;;;28.50;99.90;;;;;;5209541;28;20026;-70
2022/08/08 10:04:14;;;;;;;4.93;2.45;;;28.90;99.90;;;;;;5209222;28;20049;-70
2022/08/08 10:06:46;;;;;;;2.45;1.23;;;29.00;99.90;;;;;;5209277;28;20049;-69
2022/08/08 10:09:32;;;;;;;5.47;1.60;;;29.50;99.90;;;;;;5209344;28;20511;-70
2022/08/08 10:12:04;;;;;;;4.03;1.40;;;30.00;99.90;;;;;;5209304;28;20109;-69
2022/08/08 10:40:15;;;;;;;3.22;1.35;;;29.70;99.90;;;;;;5307702;27;20442;-74
2022/08/08 10:42:57;;;;;;;2.88;1.27;;;29.40;99.90;;;;;;5307717;28;20022;-74
2022/08/08 10:45:29;;;;;;;9.57;4.18;;;28.90;99.90;;;;;;5307532;28;20441;-74
2022/08/08 10:48:00;;;;;;;4.22;2.05;;;29.00;99.90;;;;;;5307587;28;20028;-73
2022/08/08 10:50:35;;;;;;;1.98;0.85;;;29.60;99.90;;;;;;5288871;28;20671;-74
2022/08/08 10:53:09;;;;;;;3.28;1.35;;;29.20;99.90;;;;;;5307565;28;20016;-74
2022/08/08 10:55:41;;;;;;;6.38;2.67;;;29.00;99.90;;;;;;5307326;28;20027;-74
2022/08/08 10:58:12;;;;;;;2.20;1.10;;;29.60;99.90;;;;;;5307451;28;20023;-75
2022/08/08 11:00:44;;;;;;;2.33;1.30;;;29.50;99.90;;;;;;5307165;28;20344;-74
2022/08/08 11:03:16;;;;;;;2.13;1.08;;;29.60;99.90;;;;;;5307311;27;20011;-74
2022/08/08 11:05:48;;;;;;;2.42;1.42;;;29.30;99.90;;;;;;5307530;27;20036;-74
2022/08/08 11:08:30;;;;;;;4.38;1.30;;;29.60;99.90;;;;;;5307308;27;20033;-74
2022/08/08 11:11:11;;;;;;;1.20;1.10;;;29.90;99.90;;;;;;5302581;27;20098;-74
2022/08/08 11:13:45;;;;;;;4.80;1.48;;;30.20;99.90;;;;;;5299176;27;20027;-74
2022/08/08 11:16:23;;;;;;;17.60;11.80;;;29.80;99.90;;;;;;5285896;28;20016;-74
2022/08/08 11:18:56;;;;;;;7.03;1.95;;;29.80;99.90;;;;;;5285663;28;20114;-74
2022/08/08 11:21:33;;;;;;;3.20;1.35;;;29.60;99.90;;;;;;5285954;28;20013;-74
2022/08/08 11:24:07;;;;;;;3.97;1.88;;;29.50;99.90;;;;;;5285658;28;20028;-74
2022/08/08 11:26:42;;;;;;;3.00;1.52;;;29.60;99.90;;;;;;5285529;28;20028;-74
2022/08/08 11:29:16;;;;;;;3.75;1.70;;;29.80;99.90;;;;;;5285503;28;20608;-74
2022/08/08 11:31:49;;;;;;;6.00;1.42;;;29.80;99.90;;;;;;5285491;28;20471;-74
2022/08/08 11:34:22;;;;;;;3.30;1.55;;;29.50;99.90;;;;;;5285365;28;20024;-74
2022/08/08 11:36:54;;;;;;;3.13;1.38;;;29.50;99.90;;;;;;5285483;28;20032;-74
2022/08/08 11:39:25;;;;;;;1.83;1.20;;;29.50;99.90;;;;;;5280798;28;20087;-74
2022/08/08 11:41:57;;;;;;;2.30;1.13;;;29.90;99.90;;;;;;5271252;28;20039;-74
2022/08/08 11:44:30;;;;;;;5.07;1.55;;;30.20;99.90;;;;;;5269925;28;20057;-74
2022/08/08 11:47:01;;;;;;;15.23;7.78;;;29.80;99.90;;;;;;5271122;28;20059;-74
2022/08/08 11:49:32;;;;;;;4.68;1.67;;;30.30;99.90;;;;;;5270961;28;20391;-73
2022/08/08 11:52:05;;;;;;;4.78;1.50;;;30.30;99.90;;;;;;5270925;28;20026;-74
2022/08/08 11:54:43;;;;;;;2.15;0.90;;;30.10;99.90;;;;;;5270948;28;20522;-74
2022/08/08 11:57:20;;;;;;;2.22;1.27;;;30.10;99.90;;;;;;5271004;28;20103;-74
2022/08/08 11:59:58;;;;;;;5.07;1.48;;;30.30;99.90;;;;;;5270696;28;20371;-74
2022/08/08 12:02:30;;;;;;;2.95;1.58;;;30.60;99.90;;;;;;5270811;28;20028;-74
2022/08/08 12:05:05;;;;;;;4.75;1.50;;;30.20;99.90;;;;;;5270734;28;20020;-74
2022/08/08 12:07:50;;;;;;;4.03;1.48;;;30.20;99.90;;;;;;5270411;28;20028;-74
2022/08/08 12:10:24;;;;;;;2.45;1.23;;;30.20;99.90;;;;;;5270499;28;20127;-74
2022/08/08 12:13:05;;;;;;;4.75;1.80;;;29.90;99.90;;;;;;5270561;28;20356;-73
2022/08/08 12:15:38;;;;;;;2.40;1.13;;;30.60;99.90;;;;;;5270518;28;20024;-74
2022/08/08 12:18:26;;;;;;;5.18;1.80;;;30.40;99.90;;;;;;5270439;28;20110;-74
2022/08/08 12:20:57;;;;;;;6.25;2.38;;;30.00;99.90;;;;;;5270455;28;20028;-74
2022/08/08 12:23:34;;;;;;;2.45;1.63;;;30.30;99.90;;;;;;5270389;28;20031;-74
2022/08/08 12:26:14;;;;;;;4.32;2.20;;;30.20;99.90;;;;;;5270354;28;20024;-73
2022/08/08 12:28:58;;;;;;;5.00;1.90;;;29.70;99.90;;;;;;5269943;28;20795;-74
2022/08/08 12:31:35;;;;;;;3.80;1.70;;;29.30;99.90;;;;;;5270167;28;20016;-74
2022/08/08 12:34:06;;;;;;;5.97;2.10;;;29.60;99.90;;;;;;5268965;28;20032;-74
2022/08/08 12:36:42;;;;;;;5.10;2.08;;;29.30;99.90;;;;;;5270110;28;20016;-74
2022/08/08 12:39:13;;;;;;;3.30;1.67;;;29.60;99.90;;;;;;5269764;28;20071;-73
2022/08/08 12:41:43;;;;;;;2.83;1.60;;;29.70;99.90;;;;;;5270270;28;20051;-73
2022/08/08 12:44:25;;;;;;;2.97;2.08;;;30.00;99.90;;;;;;5269945;28;20028;-74
2022/08/08 12:46:57;;;;;;;4.40;2.08;;;29.50;99.90;;;;;;5269890;28;20056;-74
2022/08/08 12:49:30;;;;;;;6.25;2.00;;;29.50;99.90;;;;;;5268517;28;20066;-74
2022/08/08 12:52:02;;;;;;;4.07;2.20;;;29.50;99.90;;;;;;5268794;28;20016;-74
2022/08/08 12:54:36;;;;;;;5.82;2.80;;;29.70;99.90;;;;;;5269803;28;20036;-73
2022/08/08 12:57:21;;;;;;;5.78;2.22;;;29.80;99.90;;;;;;5268386;28;20491;-74
2022/08/08 12:59:52;;;;;;;3.80;2.13;;;29.60;99.90;;;;;;5269661;28;20028;-74
2022/08/08 13:02:26;;;;;;;5.90;2.30;;;29.70;99.90;;;;;;5269825;28;20387;-74
2022/08/08 13:05:03;;;;;;;6.95;2.35;;;29.40;99.90;;;;;;5270031;28;20016;-74
2022/08/08 13:07:39;;;;;;;4.30;1.95;;;29.40;99.90;;;;;;5269711;28;20492;-74
2022/08/08 13:10:13;;;;;;;4.85;2.20;;;29.10;99.90;;;;;;5269491;28;20036;-74
2022/08/08 13:12:47;;;;;;;4.70;2.40;;;29.00;99.90;;;;;;5269504;28;20032;-74
2022/08/08 13:15:19;;;;;;;4.43;1.95;;;29.30;99.90;;;;;;5269625;28;20024;-74
2022/08/08 13:17:50;;;;;;;4.15;2.25;;;29.10;99.90;;;;;;5269501;28;20024;-74
2022/08/08 13:20:22;;;;;;;2.38;1.98;;;29.40;99.90;;;;;;5269371;28;20642;-74
2022/08/08 13:22:55;;;;;;;5.53;2.28;;;29.40;99.90;;;;;;5269253;28;20393;-74
2022/08/08 13:25:26;;;;;;;2.53;2.15;;;29.60;99.90;;;;;;5269412;28;20084;-74
2022/08/08 13:27:57;;;;;;;5.97;2.22;;;29.40;99.90;;;;;;5269092;28;20031;-74
2022/08/08 13:30:27;;;;;;;7.15;2.05;;;29.20;99.90;;;;;;5269004;28;20031;-74
2022/08/08 13:33:00;;;;;;;5.28;2.30;;;29.50;99.90;;;;;;5269140;28;20028;-74
2022/08/08 13:35:31;;;;;;;2.22;2.03;;;29.40;99.90;;;;;;5268943;28;20020;-74
2022/08/08 13:38:03;;;;;;;3.65;2.17;;;29.30;99.90;;;;;;5268791;28;20514;-74
2022/08/08 13:40:34;;;;;;;3.55;2.15;;;29.20;99.90;;;;;;5269025;28;20032;-74
2022/08/08 13:43:05;;;;;;;5.40;1.88;;;29.00;99.90;;;;;;5269062;28;20114;-74
2022/08/08 13:45:36;;;;;;;3.63;2.30;;;29.20;99.90;;;;;;5268745;28;20091;-74
2022/08/08 13:48:14;;;;;;;4.60;2.25;;;29.30;99.90;;;;;;5268936;28;20062;-74
2022/08/08 13:50:49;;;;;;;7.40;2.53;;;29.00;99.90;;;;;;5268728;28;20020;-74
2022/08/08 13:53:29;;;;;;;5.32;2.42;;;29.20;99.90;;;;;;5268885;28;20028;-75
2022/08/08 13:56:04;;;;;;;4.90;1.90;;;29.50;99.90;;;;;;5268764;28;20020;-74
2022/08/08 13:58:35;;;;;;;4.28;2.15;;;29.50;99.90;;;;;;5268766;28;20031;-74
2022/08/08 14:01:16;;;;;;;5.70;1.92;;;29.10;99.90;;;;;;5268636;28;20020;-74
2022/08/08 14:03:54;;;;;;;5.85;2.03;;;29.70;99.90;;;;;;5268601;28;20031;-74
2022/08/08 14:06:27;;;;;;;4.65;2.22;;;29.50;99.90;;;;;;5268504;28;20016;-74
2022/08/08 14:08:57;;;;;;;3.90;1.83;;;29.50;99.90;;;;;;5268137;28;20079;-75